Archival Weather

Chicago O'Hare International

Chicago, Illinois (KORD)

Report from: Saturday, December 31, 2022 4:51 AM CST
Current time: Tuesday, July 16, 2024 11:26 AM CDT

Current weather – Weather history – Daily summaries
Weather forecast

Temperature-2.2°C (28.0°F)
Dew point-5.0°C (23.0°F)
Winds Calm
Visibility10 mi. (16.1 km)
Clouds Ceiling: Broken clouds 25,000 ft. (7,620 m)
Altimeter29.93 in.Hg (1014 mB)
Relative humidity81 %
Density altitude-2,075 ft. (-632 m)
Sea-level pressure101.4 kPa (1014 mB, 29.95 in.Hg)
Remarks Automated weather observing station with precipitation discriminator
Flight conditions Visual Meteorological Conditions
Raw dataKORD 311051Z 00000KT 10SM BKN250 M02/M05 A2993 RMK AO2 SLP141 T10221050
An error has occurred. This application may no longer respond until reloaded. Reload 🗙